Time;durP1;ratioP1;P1;durP2;ratioP2;P2;SDS_P1;SDS_P2;PMS_P1;PMS_P2;Temp;Humidity;BMP_temperature;BMP_pressure;BME280_temperature;BME280_humidity;BME280_pressure;Samples;Min_cycle;Max_cycle;Signal;HPM_P1;HPM_P2
2022/03/01 00:01:50;;;;;;;;;;;10.80;99.90;;;;;;5088924;28;20427;-81
2022/03/01 00:04:43;;;;;;;;;;;11.00;99.90;;;;;;5082131;28;19940;-81
2022/03/01 00:07:12;;;;;;;;;;;10.90;99.90;;;;;;5032264;28;19931;-79
2022/03/01 00:09:45;;;;;;;;;;;11.00;99.90;;;;;;5053470;28;19928;-81
2022/03/01 00:12:14;;;;;;;;;;;10.90;99.90;;;;;;5066531;28;19924;-80
2022/03/01 00:14:46;;;;;;;;;;;11.20;99.90;;;;;;5049963;28;19932;-82
2022/03/01 00:17:14;;;;;;;;;;;10.90;99.90;;;;;;5082591;28;19929;-80
2022/03/01 00:19:44;;;;;;;;;;;10.90;99.90;;;;;;5070705;28;19930;-80
2022/03/01 00:22:13;;;;;;;;;;;10.90;99.90;;;;;;5054425;28;19935;-79
2022/03/01 00:24:42;;;;;;;;;;;10.90;99.90;;;;;;5056113;28;19924;-80
2022/03/01 00:27:11;;;;;;;;;;;10.90;99.90;;;;;;5091425;28;19929;-81
2022/03/01 00:29:39;;;;;;;;;;;10.00;99.90;;;;;;5045491;28;19927;-80
2022/03/01 00:32:10;;;;;;;;;;;10.90;99.90;;;;;;5079108;28;19935;-79
2022/03/01 00:34:38;;;;;;;;;;;10.90;99.90;;;;;;5053974;28;19931;-78
2022/03/01 00:37:08;;;;;;;;;;;10.90;99.90;;;;;;5053771;28;19920;-81
2022/03/01 00:39:39;;;;;;;;;;;10.90;99.90;;;;;;5069594;28;19931;-83
2022/03/01 00:42:12;;;;;;;;;;;9.40;99.90;;;;;;5071340;28;19935;-82
2022/03/01 00:44:40;;;;;;;;;;;10.60;99.90;;;;;;5052319;28;19933;-80
2022/03/01 00:47:08;;;;;;;;;;;10.90;99.90;;;;;;5077317;28;19912;-81
2022/03/01 00:49:36;;;;;;;;;;;10.90;99.90;;;;;;5050472;28;19929;-81
2022/03/01 00:52:08;;;;;;;;;;;10.90;99.90;;;;;;5060805;28;19936;-79
2022/03/01 00:54:36;;;;;;;;;;;10.90;99.90;;;;;;5063077;28;20154;-80
2022/03/01 00:57:06;;;;;;;;;;;10.90;99.90;;;;;;5063026;28;19999;-81
2022/03/01 00:59:35;;;;;;;;;;;11.00;99.90;;;;;;5082596;28;20087;-81
2022/03/01 01:02:04;;;;;;;;;;;11.00;99.90;;;;;;5067440;28;19949;-80
2022/03/01 01:04:33;;;;;;;;;;;10.90;99.90;;;;;;5070342;28;19934;-81
2022/03/01 01:07:02;;;;;;;;;;;10.90;99.90;;;;;;5087425;28;19925;-80
2022/03/01 01:09:31;;;;;;;;;;;11.80;99.90;;;;;;5052408;28;19940;-81
2022/03/01 01:11:59;;;;;;;;;;;10.90;99.90;;;;;;5079289;28;19925;-82
2022/03/01 01:14:28;;;;;;;;;;;11.00;99.90;;;;;;5047247;28;19948;-81
2022/03/01 01:16:56;;;;;;;;;;;10.40;99.90;;;;;;5063500;28;19931;-80
2022/03/01 01:19:23;;;;;;;;;;;10.90;99.90;;;;;;5048329;28;19925;-80
2022/03/01 01:24:44;;;;;;;;;;;11.30;99.90;;;;;;5051269;28;19925;-80
2022/03/01 01:27:14;;;;;;;;;;;10.90;99.90;;;;;;5067225;28;19931;-80
2022/03/01 01:29:43;;;;;;;;;;;10.70;99.90;;;;;;5054131;28;19934;-78
2022/03/01 01:32:12;;;;;;;;;;;10.80;99.90;;;;;;5060284;28;19929;-82
2022/03/01 01:34:40;;;;;;;;;;;11.10;99.90;;;;;;5048156;28;20226;-80
2022/03/01 01:37:08;;;;;;;;;;;10.90;99.90;;;;;;5067233;28;19924;-80
2022/03/01 01:39:37;;;;;;;;;;;10.90;99.90;;;;;;5070260;28;19932;-81
2022/03/01 01:42:06;;;;;;;;;;;10.90;99.90;;;;;;5075616;28;19927;-81
2022/03/01 01:44:34;;;;;;;;;;;10.80;99.90;;;;;;5048648;28;19929;-81
2022/03/01 01:47:02;;;;;;;;;;;10.90;99.90;;;;;;5065715;28;19925;-82
2022/03/01 01:49:31;;;;;;;;;;;10.90;99.90;;;;;;5065299;28;19924;-81
2022/03/01 01:51:59;;;;;;;;;;;10.90;99.90;;;;;;5083021;28;19925;-81
2022/03/01 01:54:27;;;;;;;;;;;10.90;99.90;;;;;;5066565;28;19939;-81
2022/03/01 01:56:58;;;;;;;;;;;10.80;99.90;;;;;;5050370;28;19925;-81
2022/03/01 01:59:25;;;;;;;;;;;10.80;99.90;;;;;;5016880;28;19920;-79
2022/03/01 02:01:54;;;;;;;;;;;12.00;99.90;;;;;;5035238;28;19925;-82
2022/03/01 02:04:28;;;;;;;;;;;10.80;99.90;;;;;;5031883;28;19921;-79
2022/03/01 02:06:57;;;;;;;;;;;10.80;99.90;;;;;;5048350;28;19933;-82
2022/03/01 02:09:26;;;;;;;;;;;11.00;99.90;;;;;;5032413;28;19929;-79
2022/03/01 02:11:54;;;;;;;;;;;10.80;99.90;;;;;;5046635;28;19919;-80
2022/03/01 02:14:23;;;;;;;;;;;10.80;99.90;;;;;;5031975;28;20374;-80
2022/03/01 02:16:52;;;;;;;;;;;10.80;99.90;;;;;;5047226;28;20266;-80
2022/03/01 02:19:26;;;;;;;;;;;9.50;99.90;;;;;;5047824;28;19952;-80
2022/03/01 02:21:59;;;;;;;;;;;10.80;99.90;;;;;;5041257;28;19936;-79
2022/03/01 02:24:30;;;;;;;;;;;10.90;99.90;;;;;;5009672;28;19925;-79
2022/03/01 02:26:59;;;;;;;;;;;10.90;99.90;;;;;;5008324;28;19949;-79
2022/03/01 02:29:27;;;;;;;;;;;9.60;99.90;;;;;;5057647;28;19940;-81
2022/03/01 02:31:59;;;;;;;;;;;10.80;99.90;;;;;;5028782;28;19947;-80
2022/03/01 02:34:27;;;;;;;;;;;10.90;99.90;;;;;;5041342;28;19931;-80
2022/03/01 02:36:55;;;;;;;;;;;10.90;99.90;;;;;;5011440;28;19932;-80
2022/03/01 02:39:24;;;;;;;;;;;10.90;99.90;;;;;;5044544;28;19931;-81
2022/03/01 02:41:52;;;;;;;;;;;10.80;99.90;;;;;;5028602;28;19937;-80
2022/03/01 02:44:21;;;;;;;;;;;10.90;99.90;;;;;;5044140;28;19935;-80
2022/03/01 02:46:49;;;;;;;;;;;10.80;99.90;;;;;;5027807;28;19921;-79
2022/03/01 02:49:18;;;;;;;;;;;10.50;99.90;;;;;;5066557;28;19920;-78
2022/03/01 02:51:45;;;;;;;;;;;10.80;99.90;;;;;;5050064;28;19927;-80
2022/03/01 02:54:13;;;;;;;;;;;10.80;99.90;;;;;;5044988;28;19949;-80
2022/03/01 02:56:43;;;;;;;;;;;10.70;99.90;;;;;;5025498;28;19930;-79
2022/03/01 02:59:11;;;;;;;;;;;10.80;99.90;;;;;;5053682;28;19924;-82
2022/03/01 03:01:41;;;;;;;;;;;10.80;99.90;;;;;;5051557;28;19927;-81
2022/03/01 03:04:11;;;;;;;;;;;10.80;99.90;;;;;;5048859;28;19931;-83
2022/03/01 03:06:39;;;;;;;;;;;10.80;99.90;;;;;;5049672;28;19925;-81
2022/03/01 03:09:07;;;;;;;;;;;10.80;99.90;;;;;;5029483;28;19929;-81
2022/03/01 03:11:35;;;;;;;;;;;10.90;99.90;;;;;;5064779;28;19924;-80
2022/03/01 03:14:05;;;;;;;;;;;10.70;99.90;;;;;;5063097;28;19925;-80
2022/03/01 03:16:33;;;;;;;;;;;10.80;99.90;;;;;;5066187;28;19925;-80
2022/03/01 03:19:01;;;;;;;;;;;10.80;99.90;;;;;;5081602;28;19925;-81
2022/03/01 03:21:32;;;;;;;;;;;10.80;99.90;;;;;;5059839;28;19948;-80
2022/03/01 03:24:00;;;;;;;;;;;10.90;99.90;;;;;;5062059;28;19927;-80
2022/03/01 03:26:29;;;;;;;;;;;10.80;99.90;;;;;;5080297;28;19932;-82
2022/03/01 03:28:57;;;;;;;;;;;12.30;99.90;;;;;;5047236;28;19940;-81
2022/03/01 03:31:26;;;;;;;;;;;10.80;99.90;;;;;;5046554;28;19925;-80
2022/03/01 03:33:55;;;;;;;;;;;10.80;99.90;;;;;;5049960;28;19921;-81
2022/03/01 03:36:23;;;;;;;;;;;10.80;99.90;;;;;;5019860;28;19929;-81
2022/03/01 03:38:54;;;;;;;;;;;10.70;99.90;;;;;;5067456;28;20511;-81
2022/03/01 03:41:22;;;;;;;;;;;10.80;99.90;;;;;;5033317;28;19929;-80
2022/03/01 03:43:51;;;;;;;;;;;10.80;99.90;;;;;;5049653;28;20031;-81
2022/03/01 03:46:21;;;;;;;;;;;10.50;99.90;;;;;;5045248;28;19929;-81
2022/03/01 03:48:49;;;;;;;;;;;10.80;99.90;;;;;;5023037;28;19932;-82
2022/03/01 03:51:17;;;;;;;;;;;10.80;99.90;;;;;;5069827;28;19928;-80
2022/03/01 03:53:44;;;;;;;;;;;10.80;99.90;;;;;;5061273;28;20444;-80
2022/03/01 03:56:14;;;;;;;;;;;10.80;99.90;;;;;;5052265;28;19928;-82
2022/03/01 03:58:42;;;;;;;;;;;10.80;99.90;;;;;;5052474;28;19924;-81
2022/03/01 04:01:10;;;;;;;;;;;10.80;99.90;;;;;;5055174;28;19924;-80
2022/03/01 04:03:39;;;;;;;;;;;10.70;99.90;;;;;;5070851;28;19920;-81
2022/03/01 04:06:08;;;;;;;;;;;10.10;99.90;;;;;;5052995;28;19921;-81
2022/03/01 04:09:02;;;;;;;;;;;10.80;99.90;;;;;;5069327;28;19929;-82
2022/03/01 04:11:33;;;;;;;;;;;10.80;99.90;;;;;;5035368;28;20023;-82
2022/03/01 04:14:02;;;;;;;;;;;10.70;99.90;;;;;;5049494;28;19926;-79
2022/03/01 04:16:31;;;;;;;;;;;10.60;99.90;;;;;;5049591;28;19925;-80
2022/03/01 04:19:02;;;;;;;;;;;10.80;99.90;;;;;;5033244;28;19941;-79
2022/03/01 04:21:30;;;;;;;;;;;10.80;99.90;;;;;;5061950;28;19951;-80
2022/03/01 04:23:58;;;;;;;;;;;10.80;99.90;;;;;;5065028;28;19932;-80
2022/03/01 04:26:29;;;;;;;;;;;10.70;99.90;;;;;;5064495;28;19929;-80
2022/03/01 04:28:58;;;;;;;;;;;10.70;99.90;;;;;;5064320;28;19936;-79
2022/03/01 04:31:30;;;;;;;;;;;10.70;99.90;;;;;;5068635;28;19953;-79
2022/03/01 04:33:58;;;;;;;;;;;10.70;99.90;;;;;;5048672;28;19925;-83
2022/03/01 04:36:26;;;;;;;;;;;11.00;99.90;;;;;;5050933;28;19925;-80
2022/03/01 04:38:56;;;;;;;;;;;9.90;99.90;;;;;;5034914;28;19931;-80
2022/03/01 04:41:23;;;;;;;;;;;10.70;99.90;;;;;;5083619;28;19931;-83
2022/03/01 04:43:51;;;;;;;;;;;10.70;99.90;;;;;;5064198;28;19925;-81
2022/03/01 04:46:21;;;;;;;;;;;10.80;99.90;;;;;;5017335;28;19921;-81
2022/03/01 04:48:50;;;;;;;;;;;10.70;99.90;;;;;;5059016;28;19933;-82
2022/03/01 04:51:21;;;;;;;;;;;10.80;99.90;;;;;;5049194;28;19939;-80
2022/03/01 04:53:50;;;;;;;;;;;10.70;99.90;;;;;;5060426;28;19935;-83
2022/03/01 04:56:19;;;;;;;;;;;10.80;99.90;;;;;;5050191;28;19935;-84
2022/03/01 04:58:47;;;;;;;;;;;10.70;99.90;;;;;;5080387;28;19935;-84
2022/03/01 05:01:15;;;;;;;;;;;10.70;99.90;;;;;;5078199;28;19924;-83
2022/03/01 05:03:43;;;;;;;;;;;10.70;99.90;;;;;;5069425;28;19925;-83
2022/03/01 05:06:11;;;;;;;;;;;11.70;99.90;;;;;;5067027;28;19931;-81
2022/03/01 05:08:39;;;;;;;;;;;10.70;99.90;;;;;;5075556;28;19929;-80
2022/03/01 05:11:09;;;;;;;;;;;10.60;99.90;;;;;;5066754;28;19929;-79
2022/03/01 05:13:37;;;;;;;;;;;10.70;99.90;;;;;;5039353;28;19922;-81
2022/03/01 05:16:07;;;;;;;;;;;10.80;99.90;;;;;;5087717;28;19925;-81
2022/03/01 05:18:38;;;;;;;;;;;10.70;99.90;;;;;;5093464;28;19925;-80
2022/03/01 05:21:05;;;;;;;;;;;10.80;99.90;;;;;;5060445;28;19927;-81
2022/03/01 05:23:38;;;;;;;;;;;10.60;99.90;;;;;;5050172;28;19959;-80
2022/03/01 05:26:11;;;;;;;;;;;10.60;99.90;;;;;;5073962;28;20423;-81
2022/03/01 05:28:40;;;;;;;;;;;10.60;99.90;;;;;;5085177;28;19925;-79
2022/03/01 05:31:08;;;;;;;;;;;10.60;99.90;;;;;;5083686;28;19932;-80
2022/03/01 05:33:39;;;;;;;;;;;9.30;99.90;;;;;;5078702;28;20436;-79
2022/03/01 05:36:15;;;;;;;;;;;10.30;99.90;;;;;;5053885;28;19929;-80
2022/03/01 05:38:43;;;;;;;;;;;10.30;99.90;;;;;;5082271;28;19935;-80
2022/03/01 05:41:13;;;;;;;;;;;10.40;99.90;;;;;;5070672;28;20373;-80
2022/03/01 05:43:41;;;;;;;;;;;10.20;99.90;;;;;;5068265;28;19925;-80
2022/03/01 05:46:12;;;;;;;;;;;9.70;99.90;;;;;;5041437;28;19928;-80
2022/03/01 05:48:45;;;;;;;;;;;10.30;99.90;;;;;;5087747;28;19950;-79
2022/03/01 05:51:14;;;;;;;;;;;10.10;99.90;;;;;;5037561;28;19939;-80
2022/03/01 05:53:43;;;;;;;;;;;10.10;99.90;;;;;;5082664;28;19925;-81
2022/03/01 05:56:14;;;;;;;;;;;10.50;99.90;;;;;;5064890;28;19917;-81
2022/03/01 05:58:43;;;;;;;;;;;10.90;99.90;;;;;;5048021;28;19929;-80
2022/03/01 06:01:12;;;;;;;;;;;10.00;99.90;;;;;;5064253;28;19925;-79
2022/03/01 06:03:42;;;;;;;;;;;10.00;99.90;;;;;;5071215;28;20436;-78
2022/03/01 06:06:14;;;;;;;;;;;10.00;99.90;;;;;;5068141;28;19927;-80
2022/03/01 06:08:43;;;;;;;;;;;10.20;99.90;;;;;;5083188;28;19912;-79
2022/03/01 06:11:11;;;;;;;;;;;9.90;99.90;;;;;;5064661;28;19924;-82
2022/03/01 06:13:43;;;;;;;;;;;9.90;99.90;;;;;;5072072;28;19925;-81
2022/03/01 06:16:12;;;;;;;;;;;9.80;99.90;;;;;;5069327;28;19948;-81
2022/03/01 06:18:40;;;;;;;;;;;9.80;99.90;;;;;;5094243;28;21180;-78
2022/03/01 06:21:08;;;;;;;;;;;9.80;99.90;;;;;;5069496;28;20632;-82
2022/03/01 06:23:41;;;;;;;;;;;9.70;99.90;;;;;;5086442;28;19925;-81
2022/03/01 06:26:12;;;;;;;;;;;9.70;99.90;;;;;;5060353;28;19925;-81
2022/03/01 06:28:41;;;;;;;;;;;9.70;99.90;;;;;;5064878;28;19935;-80
2022/03/01 06:31:10;;;;;;;;;;;9.60;99.90;;;;;;5067185;28;19935;-80
2022/03/01 06:33:38;;;;;;;;;;;9.60;99.90;;;;;;5052543;28;19925;-80
2022/03/01 06:36:06;;;;;;;;;;;9.60;99.90;;;;;;5049288;28;19925;-79
2022/03/01 06:38:34;;;;;;;;;;;9.60;99.90;;;;;;5048778;28;20282;-79
2022/03/01 06:41:03;;;;;;;;;;;9.50;99.90;;;;;;5052621;28;19928;-79
2022/03/01 06:43:34;;;;;;;;;;;9.50;99.90;;;;;;5066765;28;19932;-79
2022/03/01 06:46:01;;;;;;;;;;;9.60;99.90;;;;;;5064099;28;19925;-81
2022/03/01 06:48:33;;;;;;;;;;;9.50;99.90;;;;;;5061585;28;19941;-79
2022/03/01 06:51:01;;;;;;;;;;;9.60;99.90;;;;;;5060624;28;19925;-80
2022/03/01 06:53:29;;;;;;;;;;;9.50;99.90;;;;;;5063797;28;19932;-80
2022/03/01 06:55:57;;;;;;;;;;;9.50;99.90;;;;;;5078179;28;19931;-78
2022/03/01 06:58:25;;;;;;;;;;;9.40;99.90;;;;;;5059397;28;20291;-79
2022/03/01 07:00:54;;;;;;;;;;;9.60;99.90;;;;;;5061513;28;19933;-79
2022/03/01 07:03:24;;;;;;;;;;;9.60;99.90;;;;;;5060300;28;20298;-80
2022/03/01 07:05:54;;;;;;;;;;;9.50;99.90;;;;;;5072832;28;19929;-80
2022/03/01 07:08:26;;;;;;;;;;;9.40;99.90;;;;;;5077533;28;19925;-81
2022/03/01 07:10:54;;;;;;;;;;;9.50;99.90;;;;;;5031280;28;19931;-80
2022/03/01 07:13:25;;;;;;;;;;;9.60;99.90;;;;;;5059790;28;19935;-80
2022/03/01 07:15:53;;;;;;;;;;;9.40;99.90;;;;;;5060678;28;19925;-79
2022/03/01 07:18:24;;;;;;;;;;;9.40;99.90;;;;;;5064608;28;19935;-79
2022/03/01 07:20:54;;;;;;;;;;;9.60;99.90;;;;;;5065379;28;19929;-81
2022/03/01 07:23:22;;;;;;;;;;;9.50;99.90;;;;;;5070389;28;19932;-81
2022/03/01 07:25:51;;;;;;;;;;;9.50;99.90;;;;;;5029337;28;19936;-79
2022/03/01 07:28:19;;;;;;;;;;;9.50;99.90;;;;;;5044816;28;19932;-81
2022/03/01 07:30:47;;;;;;;;;;;9.50;99.90;;;;;;5062534;28;19940;-80
2022/03/01 07:33:15;;;;;;;;;;;9.50;99.90;;;;;;5064352;28;19924;-82
2022/03/01 07:35:44;;;;;;;;;;;9.60;99.90;;;;;;5066853;28;19925;-80
2022/03/01 07:38:12;;;;;;;;;;;9.60;99.90;;;;;;5077784;28;19929;-80
2022/03/01 07:40:41;;;;;;;;;;;9.70;99.90;;;;;;5058218;28;19929;-81
2022/03/01 07:43:18;;;;;;;;;;;9.60;99.90;;;;;;5062131;28;20008;-81
2022/03/01 07:45:56;;;;;;;;;;;8.30;99.90;;;;;;5060881;28;19921;-81
2022/03/01 07:48:24;;;;;;;;;;;9.50;99.90;;;;;;5066603;28;19925;-80
2022/03/01 07:50:55;;;;;;;;;;;9.50;99.90;;;;;;5052105;28;19940;-80
2022/03/01 07:53:23;;;;;;;;;;;9.50;99.90;;;;;;5048905;28;19929;-81
2022/03/01 07:55:51;;;;;;;;;;;8.90;99.90;;;;;;5032382;28;19936;-83
2022/03/01 07:58:19;;;;;;;;;;;9.40;99.90;;;;;;5048949;28;19935;-81
2022/03/01 08:00:46;;;;;;;;;;;9.50;99.90;;;;;;5069747;28;20246;-79
2022/03/01 08:03:15;;;;;;;;;;;9.40;99.90;;;;;;5082351;28;19931;-80
2022/03/01 08:05:45;;;;;;;;;;;9.40;99.90;;;;;;5060019;28;19932;-83
2022/03/01 08:08:13;;;;;;;;;;;9.40;99.90;;;;;;5062303;28;19925;-81
2022/03/01 08:10:45;;;;;;;;;;;9.40;99.90;;;;;;5080361;28;19933;-81
2022/03/01 08:13:34;;;;;;;;;;;9.30;99.90;;;;;;5059190;23;19925;-89
2022/03/01 08:16:03;;;;;;;;;;;9.30;99.90;;;;;;5050039;28;19944;-86
2022/03/01 08:18:31;;;;;;;;;;;9.70;99.90;;;;;;5039990;28;20295;-86
2022/03/01 08:21:06;;;;;;;;;;;9.30;99.90;;;;;;5042463;28;20146;-90
2022/03/01 11:42:05;;;;;;;;;;;9.00;99.90;;;;;;5047855;28;19925;-82
2022/03/01 11:44:34;;;;;;;;;;;9.00;99.90;;;;;;5011397;28;19928;-84
2022/03/01 11:47:07;;;;;;;;;;;9.00;99.90;;;;;;5065507;28;19936;-81
2022/03/01 11:49:38;;;;;;;;;;;8.90;99.90;;;;;;5046617;28;19932;-81
2022/03/01 11:52:16;;;;;;;;;;;9.00;99.90;;;;;;5069965;28;19935;-82
2022/03/01 11:54:46;;;;;;;;;;;9.10;99.90;;;;;;5055280;28;20414;-82
2022/03/01 11:57:14;;;;;;;;;;;9.00;99.90;;;;;;5045902;28;19925;-80
2022/03/01 11:59:44;;;;;;;;;;;9.10;99.90;;;;;;5024482;28;19930;-80
2022/03/01 12:02:18;;;;;;;;;;;9.00;99.90;;;;;;5011813;28;19925;-81
2022/03/01 12:04:48;;;;;;;;;;;9.10;99.90;;;;;;5041564;28;19925;-81
2022/03/01 12:07:21;;;;;;;;;;;9.10;99.90;;;;;;5028646;28;19929;-81
2022/03/01 12:10:15;;;;;;;;;;;9.20;99.90;;;;;;5028821;28;20016;-82
2022/03/01 12:12:44;;;;;;;;;;;9.20;99.90;;;;;;5024105;28;19929;-83
2022/03/01 12:15:12;;;;;;;;;;;9.20;99.90;;;;;;5049656;28;20113;-82
2022/03/01 12:17:44;;;;;;;;;;;8.70;99.90;;;;;;5047934;28;19929;-82
2022/03/01 12:20:14;;;;;;;;;;;9.40;99.90;;;;;;5066754;28;19935;-81
2022/03/01 12:22:52;;;;;;;;;;;7.90;99.90;;;;;;5047861;28;19935;-83
2022/03/01 12:25:19;;;;;;;;;;;9.30;99.90;;;;;;5046309;28;19929;-82
2022/03/01 12:27:48;;;;;;;;;;;9.30;99.90;;;;;;5046635;28;19940;-81
2022/03/01 12:30:20;;;;;;;;;;;9.30;99.90;;;;;;5064073;28;19935;-81
2022/03/01 12:32:51;;;;;;;;;;;9.40;99.90;;;;;;5047509;28;19933;-81
2022/03/01 12:35:19;;;;;;;;;;;9.50;99.90;;;;;;5061704;28;19925;-81
2022/03/01 12:37:48;;;;;;;;;;;9.40;99.90;;;;;;5042790;28;19925;-80
2022/03/01 12:40:29;;;;;;;;;;;9.40;99.90;;;;;;5046082;28;19925;-81
2022/03/01 12:43:04;;;;;;;;;;;9.30;99.90;;;;;;5066348;28;19925;-80
2022/03/01 12:45:34;;;;;;;;;;;9.40;99.90;;;;;;5062044;28;19928;-82
2022/03/01 12:48:11;;;;;;;;;;;9.30;99.90;;;;;;5061451;28;19928;-81
2022/03/01 12:50:46;;;;;;;;;;;9.80;99.90;;;;;;5044091;28;19932;-82
2022/03/01 12:53:15;;;;;;;;;;;9.30;99.90;;;;;;5053017;28;19944;-81
2022/03/01 12:55:48;;;;;;;;;;;9.30;99.90;;;;;;5064796;28;19929;-80
2022/03/01 12:58:16;;;;;;;;;;;9.30;99.90;;;;;;5186816;22;19928;-88
2022/03/01 13:00:44;;;;;;;;;;;9.30;99.90;;;;;;5087510;28;19930;-89
2022/03/01 13:03:12;;;;;;;;;;;9.30;99.90;;;;;;5089541;28;19934;-89
2022/03/01 13:05:40;;;;;;;;;;;9.30;99.90;;;;;;5069887;28;19924;-90
2022/03/01 13:08:17;;;;;;;;;;;9.30;99.90;;;;;;5090065;28;19924;-90
2022/03/01 13:10:46;;;;;;;;;;;9.30;99.90;;;;;;5067202;28;19924;-90
2022/03/01 13:13:18;;;;;;;;;;;9.20;99.90;;;;;;5082830;28;19924;-91
2022/03/01 13:15:47;;;;;;;;;;;9.20;99.90;;;;;;5075910;28;19928;-88
2022/03/01 13:18:24;;;;;;;;;;;9.20;99.90;;;;;;5059955;28;19928;-88
2022/03/01 13:20:52;;;;;;;;;;;9.20;99.90;;;;;;5059717;28;19925;-89
2022/03/01 13:23:26;;;;;;;;;;;9.20;99.90;;;;;;5063891;28;20327;-89
2022/03/01 13:26:01;;;;;;;;;;;9.20;99.90;;;;;;5075495;28;19924;-87
2022/03/01 13:28:37;;;;;;;;;;;9.20;99.90;;;;;;5099009;28;19928;-89
2022/03/01 13:31:39;;;;;;;;;;;9.10;99.90;;;;;;5063950;28;19935;-89
2022/03/01 13:34:09;;;;;;;;;;;9.20;99.90;;;;;;5071407;28;19924;-87
2022/03/01 13:36:40;;;;;;;;;;;9.30;99.90;;;;;;5075205;28;19916;-90
2022/03/01 13:39:12;;;;;;;;;;;9.10;99.90;;;;;;5049784;28;19928;-88
2022/03/01 13:41:42;;;;;;;;;;;7.60;99.90;;;;;;5059469;28;19929;-87
2022/03/01 13:44:16;;;;;;;;;;;9.20;99.90;;;;;;5087810;28;19931;-87
2022/03/01 13:46:55;;;;;;;;;;;9.10;99.90;;;;;;5093925;28;19919;-88
2022/03/01 13:49:28;;;;;;;;;;;9.10;99.90;;;;;;5088908;28;19931;-87
2022/03/01 13:52:04;;;;;;;;;;;9.10;99.90;;;;;;5067635;28;19924;-88
2022/03/01 13:54:32;;;;;;;;;;;8.80;99.90;;;;;;5065166;28;19923;-87
2022/03/01 13:57:01;;;;;;;;;;;9.10;99.90;;;;;;5111336;28;19912;-88
2022/03/01 13:59:29;;;;;;;;;;;9.10;99.90;;;;;;5075807;28;19935;-89
2022/03/01 14:01:57;;;;;;;;;;;9.10;99.90;;;;;;5087740;28;19924;-89
2022/03/01 14:04:26;;;;;;;;;;;9.40;99.90;;;;;;5082684;28;19925;-89
2022/03/01 14:06:55;;;;;;;;;;;9.00;99.90;;;;;;5062965;28;19931;-91
2022/03/01 14:09:23;;;;;;;;;;;9.00;99.90;;;;;;5062274;28;20578;-89
2022/03/01 14:11:55;;;;;;;;;;;9.00;99.90;;;;;;5071990;28;19924;-89
2022/03/01 14:14:23;;;;;;;;;;;9.10;99.90;;;;;;5100206;28;19950;-90
2022/03/01 14:16:51;;;;;;;;;;;9.10;99.90;;;;;;5061106;28;19931;-85
2022/03/01 14:19:19;;;;;;;;;;;9.20;99.90;;;;;;5077086;28;19950;-84
2022/03/01 14:21:47;;;;;;;;;;;9.20;99.90;;;;;;5076966;28;19931;-89
2022/03/01 14:24:16;;;;;;;;;;;9.20;99.90;;;;;;5079530;28;20402;-90
2022/03/01 14:26:45;;;;;;;;;;;9.20;99.90;;;;;;5061184;28;20394;-88
2022/03/01 14:29:13;;;;;;;;;;;8.80;99.90;;;;;;5077936;28;19935;-90
2022/03/01 14:31:42;;;;;;;;;;;8.50;99.90;;;;;;5064589;28;19928;-87
2022/03/01 14:34:11;;;;;;;;;;;9.20;99.90;;;;;;5093436;28;19925;-90
2022/03/01 14:36:41;;;;;;;;;;;9.20;99.90;;;;;;5058687;28;19928;-91
2022/03/01 14:39:09;;;;;;;;;;;9.20;99.90;;;;;;5059123;28;19924;-88
2022/03/01 14:41:38;;;;;;;;;;;9.10;99.90;;;;;;5047651;28;19928;-89
2022/03/01 14:44:06;;;;;;;;;;;9.20;99.90;;;;;;5061598;28;19924;-89
2022/03/01 14:46:34;;;;;;;;;;;9.10;99.90;;;;;;5062583;28;19936;-89
2022/03/01 14:49:02;;;;;;;;;;;9.10;99.90;;;;;;5061653;28;19931;-89
2022/03/01 14:51:30;;;;;;;;;;;9.10;99.90;;;;;;5079099;28;19928;-89
2022/03/01 14:54:04;;;;;;;;;;;9.00;99.90;;;;;;5078986;28;19931;-88
2022/03/01 14:56:34;;;;;;;;;;;9.00;99.90;;;;;;5064096;28;20295;-89
2022/03/01 14:59:04;;;;;;;;;;;9.00;99.90;;;;;;5064033;28;19935;-90
2022/03/01 15:01:33;;;;;;;;;;;8.90;99.90;;;;;;5077342;28;19924;-90
2022/03/01 15:04:01;;;;;;;;;;;9.90;99.90;;;;;;5047980;28;19939;-90
2022/03/01 15:06:31;;;;;;;;;;;8.90;99.90;;;;;;5064837;28;19924;-88
2022/03/01 15:08:59;;;;;;;;;;;8.80;99.90;;;;;;5062126;28;20295;-89
2022/03/01 15:11:33;;;;;;;;;;;8.80;99.90;;;;;;5053062;28;19928;-89
2022/03/01 15:14:04;;;;;;;;;;;8.80;99.90;;;;;;5057859;28;19928;-89
2022/03/01 15:16:36;;;;;;;;;;;8.80;99.90;;;;;;5055881;28;19934;-89
2022/03/01 15:19:05;;;;;;;;;;;8.80;99.90;;;;;;5054696;28;20303;-89
2022/03/01 15:21:33;;;;;;;;;;;9.10;99.90;;;;;;5058178;28;19920;-90
2022/03/01 15:24:03;;;;;;;;;;;9.00;99.90;;;;;;5050918;28;19928;-90
2022/03/01 15:26:34;;;;;;;;;;;8.80;99.90;;;;;;5064213;28;19928;-91
2022/03/01 15:29:04;;;;;;;;;;;8.80;99.90;;;;;;5063897;28;19935;-90
2022/03/01 15:31:32;;;;;;;;;;;8.90;99.90;;;;;;5083968;28;19994;-90
2022/03/01 15:34:11;;;;;;;;;;;8.80;99.90;;;;;;5052164;28;19928;-91
2022/03/01 15:36:40;;;;;;;;;;;8.90;99.90;;;;;;5064206;28;19935;-92
2022/03/01 15:39:11;;;;;;;;;;;8.80;99.90;;;;;;5067437;28;19924;-91
2022/03/01 15:41:41;;;;;;;;;;;8.80;99.90;;;;;;5062545;28;19924;-90
2022/03/01 15:44:09;;;;;;;;;;;8.80;99.90;;;;;;5057356;28;19924;-90
2022/03/01 15:46:39;;;;;;;;;;;8.80;99.90;;;;;;5050026;28;19929;-89
2022/03/01 15:49:12;;;;;;;;;;;8.80;99.90;;;;;;5048988;28;19934;-90
2022/03/01 15:51:40;;;;;;;;;;;8.70;99.90;;;;;;5045366;28;19943;-91
2022/03/01 15:54:10;;;;;;;;;;;8.70;99.90;;;;;;5047935;28;19924;-89
2022/03/01 15:56:42;;;;;;;;;;;8.80;99.90;;;;;;5064690;28;20007;-88
2022/03/01 15:59:13;;;;;;;;;;;8.60;99.90;;;;;;5081279;28;19928;-89
2022/03/01 16:01:51;;;;;;;;;;;8.60;99.90;;;;;;5065743;28;19932;-90
2022/03/01 16:04:41;;;;;;;;;;;8.60;99.90;;;;;;5077819;28;19932;-90
2022/03/01 16:07:12;;;;;;;;;;;8.60;99.90;;;;;;5088439;28;19924;-89
2022/03/01 16:09:47;;;;;;;;;;;8.60;99.90;;;;;;5058036;28;19924;-91
2022/03/01 16:12:31;;;;;;;;;;;8.60;99.90;;;;;;5069580;28;19932;-91
2022/03/01 16:15:04;;;;;;;;;;;8.70;99.90;;;;;;5050538;28;20472;-91
2022/03/01 16:17:32;;;;;;;;;;;8.70;99.90;;;;;;5065279;28;19950;-90
2022/03/01 16:20:00;;;;;;;;;;;8.70;99.90;;;;;;5066098;28;19932;-92
2022/03/01 16:22:40;;;;;;;;;;;8.70;99.90;;;;;;5062096;28;19928;-92
2022/03/01 16:25:14;;;;;;;;;;;7.70;99.90;;;;;;5048063;28;19943;-90
2022/03/01 16:27:49;;;;;;;;;;;7.10;99.90;;;;;;5081596;28;19924;-92
2022/03/01 16:30:22;;;;;;;;;;;6.90;99.90;;;;;;5064529;28;19928;-89
2022/03/01 16:32:58;;;;;;;;;;;8.60;99.90;;;;;;5051269;28;19928;-91
2022/03/01 16:35:26;;;;;;;;;;;8.60;99.90;;;;;;5045404;28;19935;-90
2022/03/01 16:37:57;;;;;;;;;;;8.60;99.90;;;;;;5049831;28;19924;-91
2022/03/01 16:40:30;;;;;;;;;;;8.60;99.90;;;;;;5061042;28;19928;-91
2022/03/01 16:43:02;;;;;;;;;;;8.50;99.90;;;;;;5056283;28;19932;-92
2022/03/01 16:45:40;;;;;;;;;;;8.50;99.90;;;;;;5061827;28;19928;-89
2022/03/01 16:48:14;;;;;;;;;;;8.60;99.90;;;;;;5061360;28;19928;-90
2022/03/01 16:50:56;;;;;;;;;;;8.50;99.90;;;;;;5064674;28;19928;-89
2022/03/01 16:53:30;;;;;;;;;;;8.50;99.90;;;;;;5082246;28;19939;-93
2022/03/01 16:56:04;;;;;;;;;;;8.60;99.90;;;;;;5066344;28;19935;-92
2022/03/01 16:58:34;;;;;;;;;;;8.50;99.90;;;;;;5102895;28;19935;-91
2022/03/01 17:01:04;;;;;;;;;;;8.50;99.90;;;;;;5058830;28;19985;-92
2022/03/01 17:03:43;;;;;;;;;;;8.50;99.90;;;;;;5091344;28;19924;-93
2022/03/01 17:06:19;;;;;;;;;;;8.50;99.90;;;;;;5074719;28;19958;-90
2022/03/01 17:08:50;;;;;;;;;;;8.40;99.90;;;;;;5069647;28;19934;-91
2022/03/01 17:11:22;;;;;;;;;;;8.50;99.90;;;;;;5072269;28;19935;-90
2022/03/01 17:14:22;;;;;;;;;;;8.40;99.90;;;;;;5033666;28;19925;-80
2022/03/01 17:16:54;;;;;;;;;;;8.30;99.90;;;;;;5043053;28;19928;-80
2022/03/01 17:19:32;;;;;;;;;;;8.40;99.90;;;;;;5037865;28;19932;-80
2022/03/01 17:22:06;;;;;;;;;;;8.50;99.90;;;;;;5025359;28;19932;-81
2022/03/01 17:24:35;;;;;;;;;;;8.40;99.90;;;;;;5057944;28;19936;-80
2022/03/01 17:27:04;;;;;;;;;;;8.70;99.90;;;;;;5041075;28;19929;-81
2022/03/01 17:29:33;;;;;;;;;;;8.50;99.90;;;;;;5063758;28;19924;-79
2022/03/01 17:32:03;;;;;;;;;;;8.40;99.90;;;;;;5060682;28;19933;-81
2022/03/01 17:34:31;;;;;;;;;;;8.50;99.90;;;;;;5041910;28;19929;-79
2022/03/01 17:37:04;;;;;;;;;;;8.40;99.90;;;;;;5060927;28;19932;-81
2022/03/01 17:39:33;;;;;;;;;;;6.80;99.90;;;;;;5058831;28;19963;-81
2022/03/01 17:42:04;;;;;;;;;;;8.40;99.90;;;;;;5060856;28;19920;-81
2022/03/01 17:44:32;;;;;;;;;;;7.10;99.90;;;;;;5063383;28;19933;-80
2022/03/01 17:47:06;;;;;;;;;;;6.80;99.90;;;;;;5065593;28;19939;-81
2022/03/01 17:49:35;;;;;;;;;;;8.30;99.90;;;;;;5060817;28;19935;-80
2022/03/01 17:52:06;;;;;;;;;;;8.30;99.90;;;;;;5056524;28;19939;-80
2022/03/01 17:54:34;;;;;;;;;;;8.30;99.90;;;;;;5026519;28;19947;-80
2022/03/01 17:57:03;;;;;;;;;;;8.20;99.90;;;;;;5044177;28;19933;-81
2022/03/01 17:59:31;;;;;;;;;;;8.20;99.90;;;;;;5078544;28;19931;-81
2022/03/01 18:01:59;;;;;;;;;;;8.30;99.90;;;;;;5063428;28;19939;-81
2022/03/01 18:04:32;;;;;;;;;;;8.20;99.90;;;;;;5064792;28;19933;-81